METAR Reports

 

KMRH - Beaufort, North Carolina, USA
Distance from station: E 8mi, 12km
Updated: Tue, 18-Jan-2022 11:58am EST
Clear
Clear
 Wind from WNW
Wind: WNW 8 mph , 13 km/h
Temperature: 45°F , 7°C
Wind Chill: 41°F , 5°C
Dew Point: 27°F , -3°C
Humidity: 49%
Barometer: 30.15 inHg , 1021 hPa
Clouds: Clear
Visibility: 10 miles , 16 km
2022/01/18 16:58 KMRH 181658Z AUTO 30007KT 10SM CLR 07/M03 A3015 RMK AO2 SLP210 T00721028 TSNO
KEWN - New Bern, North Carolina, USA
Distance from station: NW 33mi, 40km
Updated: Tue, 18-Jan-2022 11:54am EST
Clear
Clear
 Wind from NNW
Wind: NNW 9 mph , 15 km/h
Temperature: 45°F , 7°C
Wind Chill: 40°F , 4°C
Dew Point: 25°F , -4°C
Humidity: 46%
Barometer: 30.16 inHg , 1021.3 hPa
Clouds: Clear
Visibility: 10 miles , 16 km
2022/01/18 16:54 KEWN 181654Z 33008KT 10SM CLR 07/M04 A3016 RMK AO2 SLP213 T00671044
 
KPGV - Greenville, North Carolina, USA
Updated: Tue, 18-Jan-2022 12:15pm EST
Clear
Clear
 Wind from WNW
Wind: WNW 3 mph , 6 km/h
Temperature: 43°F , 6°C
Dew Point: 23°F , -5°C
Humidity: 46%
Barometer: 30.16 inHg , 1021.3 hPa
Clouds: Clear
Visibility: 10 miles , 16 km
2022/01/18 17:15 KPGV 181715Z AUTO 29003KT 10SM CLR 06/M05 A3016 RMK AO2
KOAJ - Richlands, North Carolina, USA
Updated: Tue, 18-Jan-2022 11:56am EST
Clear
Clear
 Wind from varies
Wind: varies 6 mph , 9 km/h, Gust: 16 mph , 26 km/h
Temperature: 45°F , 7°C
Wind Chill: 42°F , 6°C
Dew Point: 23°F , -5°C
Humidity: 42%
Barometer: 30.17 inHg , 1021.7 hPa
Clouds: Clear
Visibility: 10 miles , 16 km
2022/01/18 16:56 KOAJ 181656Z VRB05G14KT 10SM CLR 07/M05 A3017 RMK AO2 SLP219 T00721050
 
KISO - Kinston, North Carolina, USA
Distance from station: NW 73mi, 87km
Updated: Tue, 18-Jan-2022 11:56am EST
Clear
Clear
 Wind from NW
Wind: NW 10 mph , 17 km/h
Temperature: 45°F , 7°C
Wind Chill: 40°F , 4°C
Dew Point: 25°F , -4°C
Humidity: 46%
Barometer: 30.17 inHg , 1021.7 hPa
Clouds: Clear
Visibility: 10 miles , 16 km
2022/01/18 16:56 KISO 181656Z 32009KT 10SM CLR 07/M04 A3017
KHSE - Buxton, North Carolina, USA
Distance from station: NE 89mi, 102km
Updated: Tue, 18-Jan-2022 11:51am EST
Clear
Clear
 Wind from NNW
Wind: NNW 9 mph , 15 km/h
Temperature: 45°F , 7°C
Wind Chill: 40°F , 4°C
Dew Point: 25°F , -4°C
Humidity: 46%
Barometer: 30.14 inHg , 1020.7 hPa
Clouds: Clear
Visibility: 10 miles , 16 km
2022/01/18 16:51 KHSE 181651Z AUTO 33008KT 10SM CLR 07/M04 A3014 RMK AO2 SLP207 T00671039
 
KNCA - Jacksonville, North Carolina, USA
Distance from station: SW 48mi, 60km
Updated: Tue, 18-Jan-2022 5:56am EST
NOT Current
Clear
Clear
 Wind from W
Wind: W 8 mph , 13 km/h
Temperature: 30°F , -1°C
Wind Chill: 22°F , -6°C
Dew Point: 25°F , -4°C
Humidity: 80%
Barometer: 30.06 inHg , 1017.9 hPa
Clouds: Clear
Visibility: 10 miles , 16 km
2022/01/18 10:56 KNCA 181056Z AUTO 28007KT 10SM CLR M01/M04 A3006 RMK AO2 SLP182 T10111044
KNKT - Cherry Point, North Carolina, USA
Distance from station: NW 9mi, 12km
Updated: Tue, 18-Jan-2022 11:56am EST
Clear
Clear
 Wind from NW
Wind: NW 9 mph , 15 km/h
Temperature: 45°F , 7°C
Wind Chill: 40°F , 4°C
Dew Point: 25°F , -4°C
Humidity: 46%
Barometer: 30.16 inHg , 1021.3 hPa
Clouds: Clear
Visibility: 10 miles , 16 km
2022/01/18 16:56 KNKT 181656Z 31008KT 10SM CLR 07/M04 A3016 RMK AO2 SLP208 T00721044
 
KOCW - Washington, North Carolina, USA
Distance from station: N 73mi, 87km
Updated: Tue, 18-Jan-2022 12:15pm EST
Clear
Clear
 Wind from W
Wind: W 8 mph , 13 km/h
Temperature: 45°F , 7°C
Wind Chill: 41°F , 5°C
Dew Point: 23°F , -5°C
Humidity: 42%
Barometer: 30.15 inHg , 1021 hPa
Clouds: Clear
Visibility: 10 miles , 16 km
2022/01/18 17:15 KOCW 181715Z AUTO 27007KT 10SM CLR 07/M05 A3015 RMK AO2 T00701051
KDPL - Kenansville, North Carolina, USA
Distance from station: W 86mi, 98km
Updated: Tue, 18-Jan-2022 12:15pm EST
Clear
Clear
 
Temperature: 46°F , 8°C
Dew Point: 23°F , -5°C
Humidity: 40%
Barometer: 30.16 inHg , 1021.3 hPa
Clouds: Clear
Visibility: 10 miles , 16 km
2022/01/18 17:15 KDPL 181715Z 10SM CLR 08/M05 A3016 RMK AO2
 
KMQI - Manteo, North Carolina, USA
Updated: Tue, 18-Jan-2022 12:15pm EST
Clear
Clear
 Wind from NNW
Wind: NNW 7 mph , 11 km/h
Temperature: 41°F , 5°C
Wind Chill: 36°F , 2°C
Dew Point: 23°F , -5°C
Humidity: 49%
Barometer: 30.14 inHg , 1020.7 hPa
Clouds: Clear
Visibility: 10 miles , 16 km
2022/01/18 17:15 KMQI 181715Z AUTO 33006KT 10SM CLR 05/M05 A3014 RMK AO2 T00481050
KFFA - Kill Devil Hills, North Carolina, USA
Updated: Tue, 18-Jan-2022 12:35pm EST
Clear
Clear
 Wind from W
Wind: W 7 mph , 11 km/h
Temperature: 41°F , 5°C
Wind Chill: 36°F , 2°C
Dew Point: 21°F , -6°C
Humidity: 45%
Barometer: 30.12 inHg , 1020 hPa
Clouds: Clear
Visibility: 10 miles , 16 km
2022/01/18 17:35 KFFA 181735Z AUTO 28006KT 10SM CLR 05/M06 A3012 RMK AO2 T00481062
 
KILM - Wilmington, North Carolina, USA
Updated: Tue, 18-Jan-2022 11:53am EST
Clear
Clear
 Wind from W
Wind: W 10 mph , 17 km/h
Temperature: 48°F , 9°C
Wind Chill: 44°F , 7°C
Dew Point: 27°F , -3°C
Humidity: 43%
Barometer: 30.18 inHg , 1022 hPa
Clouds: Clear
Visibility: 10 miles , 16 km
2022/01/18 16:53 KILM 181653Z 28009KT 10SM CLR 09/M03 A3018 RMK AO2 SLP220 T00891033
KRDU - Raleigh, North Carolina, USA
Updated: Tue, 18-Jan-2022 11:51am EST
Clear
Clear
 Wind from W
Wind: W 8 mph , 13 km/h, Gust: 16 mph , 26 km/h
Temperature: 43°F , 6°C
Wind Chill: 38°F , 3°C
Dew Point: 21°F , -6°C
Humidity: 42%
Barometer: 30.15 inHg , 1021 hPa
Clouds: Clear
Visibility: 10 miles , 16 km
2022/01/18 16:51 KRDU 181651Z 28007G14KT 230V310 10SM CLR 06/M06 A3015 RMK AO2 SLP213 T00611061